Time;durP1;ratioP1;P1;durP2;ratioP2;P2;SDS_P1;SDS_P2;PMS_P1;PMS_P2;Temp;Humidity;BMP_temperature;BMP_pressure;BME280_temperature;BME280_humidity;BME280_pressure;Samples;Min_cycle;Max_cycle;Signal;HPM_P1;HPM_P2
2021/09/22 00:01:28;;;;;;;15.70;7.47;;;8.00;99.90;;;;;;5116707;27;20019;-67
2021/09/22 00:03:54;;;;;;;17.42;7.30;;;7.90;99.90;;;;;;5114296;27;20038;-67
2021/09/22 00:06:20;;;;;;;18.38;7.68;;;7.80;99.90;;;;;;5110947;27;20063;-67
2021/09/22 00:08:45;;;;;;;17.15;7.72;;;7.80;99.90;;;;;;5114259;27;20028;-67
2021/09/22 00:11:11;;;;;;;17.42;8.30;;;7.80;99.90;;;;;;5110642;27;20035;-67
2021/09/22 00:13:37;;;;;;;21.08;8.27;;;7.80;99.90;;;;;;5117128;27;20019;-67
2021/09/22 00:16:02;;;;;;;19.52;8.38;;;7.70;99.90;;;;;;5117161;27;20020;-67
2021/09/22 00:18:28;;;;;;;20.55;8.48;;;7.80;99.90;;;;;;5108259;28;20489;-67
2021/09/22 00:20:54;;;;;;;19.77;8.88;;;7.80;99.90;;;;;;5110176;27;20016;-67
2021/09/22 00:23:19;;;;;;;18.40;8.15;;;7.90;99.90;;;;;;5108846;27;20051;-67
2021/09/22 00:25:45;;;;;;;17.92;8.30;;;7.90;99.90;;;;;;5113083;27;20030;-67
2021/09/22 00:28:10;;;;;;;19.10;8.80;;;7.90;99.90;;;;;;5107752;28;20055;-67
2021/09/22 00:30:37;;;;;;;19.05;8.10;;;7.80;99.90;;;;;;5116570;27;20513;-67
2021/09/22 00:33:03;;;;;;;19.83;8.98;;;7.70;99.90;;;;;;5115588;27;20444;-67
2021/09/22 00:35:29;;;;;;;22.48;9.05;;;7.70;99.90;;;;;;5116662;27;20359;-67
2021/09/22 00:37:54;;;;;;;19.60;8.68;;;7.60;99.90;;;;;;5108172;28;20025;-67
2021/09/22 00:40:20;;;;;;;18.70;8.50;;;7.60;99.90;;;;;;5109900;28;20114;-67
2021/09/22 00:42:46;;;;;;;19.08;8.70;;;7.70;99.90;;;;;;5108142;28;20057;-67
2021/09/22 00:45:13;;;;;;;17.42;8.63;;;7.80;99.90;;;;;;5106295;28;20024;-68
2021/09/22 00:47:40;;;;;;;19.42;8.93;;;7.90;99.90;;;;;;5116497;27;20023;-67
2021/09/22 00:50:08;;;;;;;19.08;8.60;;;7.80;99.90;;;;;;5113680;27;20558;-67
2021/09/22 00:52:33;;;;;;;18.25;8.50;;;7.70;99.90;;;;;;5115069;27;20087;-67
2021/09/22 00:54:59;;;;;;;20.30;8.32;;;7.60;99.90;;;;;;5123435;28;20118;-67
2021/09/22 00:57:25;;;;;;;21.77;9.43;;;7.60;99.90;;;;;;5116571;28;20019;-67
2021/09/22 00:59:51;;;;;;;22.55;9.98;;;7.50;99.90;;;;;;5111787;28;20095;-67
2021/09/22 01:02:17;;;;;;;23.25;9.23;;;7.40;99.90;;;;;;5115287;27;20023;-67
2021/09/22 01:04:43;;;;;;;17.40;8.35;;;7.40;99.90;;;;;;5112528;28;20034;-67
2021/09/22 01:07:13;;;;;;;19.02;8.63;;;7.40;99.90;;;;;;5118353;27;20117;-67
2021/09/22 01:09:39;;;;;;;20.73;8.95;;;7.70;99.90;;;;;;5114739;28;20030;-67
2021/09/22 01:12:06;;;;;;;24.30;9.68;;;7.70;99.90;;;;;;5113840;28;20034;-67
2021/09/22 01:14:32;;;;;;;22.30;9.82;;;7.60;99.90;;;;;;5112300;28;20487;-67
2021/09/22 01:16:58;;;;;;;22.20;8.85;;;7.50;99.90;;;;;;5115074;28;20020;-67
2021/09/22 01:19:26;;;;;;;21.98;9.30;;;7.50;99.90;;;;;;5118130;28;20012;-67
2021/09/22 01:21:53;;;;;;;22.67;9.60;;;7.30;99.90;;;;;;5109702;28;20328;-67
2021/09/22 01:24:19;;;;;;;22.67;9.57;;;7.30;99.90;;;;;;5118111;28;20015;-67
2021/09/22 01:26:45;;;;;;;21.65;10.05;;;7.30;99.90;;;;;;5110562;28;20023;-67
2021/09/22 01:29:11;;;;;;;21.90;9.52;;;7.30;99.90;;;;;;5110335;27;20466;-66
2021/09/22 01:31:38;;;;;;;25.35;9.77;;;7.40;99.90;;;;;;5114710;27;20032;-67
2021/09/22 01:34:06;;;;;;;25.50;10.85;;;7.40;99.90;;;;;;5114683;27;20427;-67
2021/09/22 01:36:32;;;;;;;25.80;10.20;;;7.30;99.90;;;;;;5125784;27;20023;-67
2021/09/22 01:38:58;;;;;;;24.13;10.35;;;7.20;99.90;;;;;;5112914;27;20514;-66
2021/09/22 01:41:24;;;;;;;21.73;9.15;;;7.10;99.90;;;;;;5109370;28;20467;-66
2021/09/22 01:43:50;;;;;;;24.17;9.82;;;7.10;99.90;;;;;;5111135;27;20057;-67
2021/09/22 01:46:16;;;;;;;20.63;9.85;;;7.00;99.90;;;;;;5118062;27;20023;-67
2021/09/22 01:48:42;;;;;;;26.63;10.75;;;7.00;99.90;;;;;;5111906;27;20028;-67
2021/09/22 01:51:09;;;;;;;28.83;10.15;;;7.00;99.90;;;;;;5112512;27;20569;-67
2021/09/22 01:53:35;;;;;;;23.95;10.02;;;7.00;99.90;;;;;;5119691;27;20047;-66
2021/09/22 01:56:01;;;;;;;29.20;11.18;;;7.00;99.90;;;;;;5120028;27;20077;-66
2021/09/22 01:58:28;;;;;;;23.75;10.48;;;7.00;99.90;;;;;;5119802;27;20016;-67
2021/09/22 02:00:56;;;;;;;26.85;10.98;;;7.10;99.90;;;;;;5114195;27;20027;-67
2021/09/22 02:03:22;;;;;;;24.08;10.45;;;7.10;99.90;;;;;;5121862;27;20029;-67
2021/09/22 02:05:48;;;;;;;24.52;10.70;;;7.10;99.90;;;;;;5121134;27;20047;-66
2021/09/22 02:08:13;;;;;;;28.10;11.45;;;7.00;99.90;;;;;;5117870;27;20536;-66
2021/09/22 02:10:40;;;;;;;28.95;12.07;;;7.10;99.90;;;;;;5109993;28;20387;-67
2021/09/22 02:13:06;;;;;;;26.73;11.25;;;7.20;99.90;;;;;;5118365;27;20051;-67
2021/09/22 02:15:32;;;;;;;26.80;11.23;;;7.20;99.90;;;;;;5108367;27;20122;-67
2021/09/22 02:17:58;;;;;;;30.20;12.63;;;7.10;99.90;;;;;;5116080;27;20098;-67
2021/09/22 02:20:24;;;;;;;28.52;11.52;;;7.10;99.90;;;;;;5115923;27;20459;-66
2021/09/22 02:22:51;;;;;;;30.23;11.30;;;7.10;99.90;;;;;;5122708;27;20105;-67
2021/09/22 02:25:17;;;;;;;28.50;12.13;;;7.10;99.90;;;;;;5119105;27;20023;-66
2021/09/22 02:27:43;;;;;;;29.42;11.85;;;7.10;99.90;;;;;;5119993;27;20536;-67
2021/09/22 02:30:12;;;;;;;29.50;11.48;;;7.20;99.90;;;;;;5113075;27;20027;-67
2021/09/22 02:32:38;;;;;;;25.10;11.43;;;7.00;99.90;;;;;;5125035;27;20464;-66
2021/09/22 02:35:05;;;;;;;26.95;11.05;;;7.00;99.90;;;;;;5120715;27;20011;-67
2021/09/22 02:37:31;;;;;;;29.50;10.90;;;6.90;99.90;;;;;;5114353;27;20047;-66
2021/09/22 02:39:57;;;;;;;26.58;10.88;;;6.90;99.90;;;;;;5114077;27;20053;-67
2021/09/22 02:42:23;;;;;;;27.05;11.40;;;7.00;99.90;;;;;;5110379;28;20031;-67
2021/09/22 02:44:50;;;;;;;27.23;11.20;;;6.90;99.90;;;;;;5112139;27;20094;-66
2021/09/22 02:47:15;;;;;;;24.27;10.23;;;6.80;99.90;;;;;;5116370;27;20024;-66
2021/09/22 02:49:42;;;;;;;26.75;10.68;;;6.90;99.90;;;;;;5118486;27;20028;-66
2021/09/22 02:52:08;;;;;;;28.73;12.10;;;6.80;99.90;;;;;;5119853;27;20055;-66
2021/09/22 02:54:33;;;;;;;29.08;11.77;;;6.80;99.90;;;;;;5120273;27;20070;-66
2021/09/22 02:56:59;;;;;;;26.48;11.45;;;6.80;99.90;;;;;;5118356;27;20459;-66
2021/09/22 02:59:24;;;;;;;28.67;11.80;;;7.00;99.90;;;;;;5119767;27;20023;-66
2021/09/22 03:01:50;;;;;;;31.17;12.02;;;7.00;99.90;;;;;;5124600;27;20027;-66
2021/09/22 03:04:16;;;;;;;28.88;11.93;;;6.90;99.90;;;;;;5115391;27;20027;-67
2021/09/22 03:06:42;;;;;;;29.00;12.35;;;6.80;99.90;;;;;;5117833;27;20059;-67
2021/09/22 03:09:07;;;;;;;28.88;11.60;;;6.80;99.90;;;;;;5120585;27;20165;-66
2021/09/22 03:11:33;;;;;;;28.92;12.57;;;6.80;99.90;;;;;;5112558;27;20375;-67
2021/09/22 03:13:58;;;;;;;31.88;13.15;;;6.80;99.90;;;;;;5109732;27;20024;-66
2021/09/22 03:16:24;;;;;;;27.30;12.07;;;6.80;99.90;;;;;;5116671;27;20015;-67
2021/09/22 03:18:50;;;;;;;31.48;11.70;;;6.80;99.90;;;;;;5123477;27;20020;-67
2021/09/22 03:21:16;;;;;;;32.45;12.57;;;6.90;99.90;;;;;;5115942;27;20371;-66
2021/09/22 03:23:42;;;;;;;32.97;12.65;;;6.90;99.90;;;;;;5123685;27;20035;-67
2021/09/22 03:26:08;;;;;;;32.88;12.60;;;7.00;99.90;;;;;;5117053;27;20027;-67
2021/09/22 03:28:34;;;;;;;27.15;11.38;;;6.90;99.90;;;;;;5109331;28;20127;-67
2021/09/22 03:31:00;;;;;;;26.05;10.98;;;6.80;99.90;;;;;;5114548;27;20028;-67
2021/09/22 03:33:25;;;;;;;28.77;11.57;;;6.90;99.90;;;;;;5121572;27;20043;-67
2021/09/22 03:35:51;;;;;;;32.42;12.07;;;6.80;99.90;;;;;;5114566;27;20506;-66
2021/09/22 03:38:17;;;;;;;25.98;11.32;;;6.80;99.90;;;;;;5120340;27;20023;-67
2021/09/22 03:40:42;;;;;;;27.02;10.98;;;6.70;99.90;;;;;;5119455;27;20098;-66
2021/09/22 03:43:08;;;;;;;28.20;10.90;;;6.60;99.90;;;;;;5108532;28;20493;-66
2021/09/22 03:45:34;;;;;;;30.33;12.77;;;6.60;99.90;;;;;;5115543;27;20413;-66
2021/09/22 03:48:00;;;;;;;29.73;12.70;;;6.70;99.90;;;;;;5115755;27;20060;-66
2021/09/22 03:50:26;;;;;;;28.55;12.90;;;6.80;99.90;;;;;;5113167;27;20020;-67
2021/09/22 03:52:51;;;;;;;31.67;12.43;;;6.80;99.90;;;;;;5113601;27;20031;-67
2021/09/22 03:55:17;;;;;;;32.45;11.93;;;6.70;99.90;;;;;;5119627;27;20012;-67
2021/09/22 03:57:42;;;;;;;35.63;13.77;;;6.80;99.90;;;;;;5114611;27;20024;-67
2021/09/22 04:00:09;;;;;;;27.92;11.82;;;6.90;99.90;;;;;;5119960;27;20030;-66
2021/09/22 04:02:34;;;;;;;30.55;12.90;;;6.80;99.90;;;;;;5121659;27;20011;-67
2021/09/22 04:05:00;;;;;;;31.30;12.43;;;6.70;99.90;;;;;;5111030;27;20501;-67
2021/09/22 04:07:26;;;;;;;32.88;13.70;;;6.80;99.90;;;;;;5112286;27;20195;-66
2021/09/22 04:09:51;;;;;;;36.38;13.40;;;6.80;99.90;;;;;;5109332;27;20031;-67
2021/09/22 04:12:17;;;;;;;30.92;12.93;;;6.80;99.90;;;;;;5122056;27;20483;-66
2021/09/22 04:14:42;;;;;;;33.70;14.35;;;6.90;99.90;;;;;;5111169;27;20020;-67
2021/09/22 04:17:08;;;;;;;32.42;13.98;;;6.80;99.90;;;;;;5115086;27;20030;-66
2021/09/22 04:19:35;;;;;;;32.97;14.30;;;6.90;99.90;;;;;;5109474;28;20115;-67
2021/09/22 04:22:01;;;;;;;33.03;13.60;;;6.80;99.90;;;;;;5107752;28;20052;-67
2021/09/22 04:24:27;;;;;;;40.92;14.20;;;6.90;99.90;;;;;;5117836;27;20020;-68
2021/09/22 04:26:53;;;;;;;37.15;14.63;;;6.90;99.90;;;;;;5116395;27;20413;-66
2021/09/22 04:29:18;;;;;;;35.58;14.93;;;6.90;99.90;;;;;;5112991;27;20489;-67
2021/09/22 04:31:44;;;;;;;33.90;14.68;;;6.80;99.90;;;;;;5111272;27;20081;-66
2021/09/22 04:34:09;;;;;;;37.20;15.23;;;6.90;99.90;;;;;;5107498;27;20020;-66
2021/09/22 04:36:35;;;;;;;33.80;14.95;;;7.20;99.90;;;;;;5113040;27;20102;-67
2021/09/22 04:39:03;;;;;;;36.65;15.23;;;7.40;99.90;;;;;;5109391;27;20413;-67
2021/09/22 04:41:29;;;;;;;38.50;15.55;;;7.40;99.90;;;;;;5109179;27;20383;-67
2021/09/22 04:43:55;;;;;;;38.45;15.55;;;7.20;99.90;;;;;;5110630;28;20022;-66
2021/09/22 04:46:20;;;;;;;35.83;15.18;;;7.10;99.90;;;;;;5108551;27;20057;-67
2021/09/22 04:48:46;;;;;;;37.70;15.77;;;7.30;99.90;;;;;;5117340;27;20037;-67
2021/09/22 04:51:12;;;;;;;40.15;15.40;;;7.40;99.90;;;;;;5115687;27;20081;-66
2021/09/22 04:53:37;;;;;;;36.85;15.10;;;7.30;99.90;;;;;;5118663;27;20126;-66
2021/09/22 04:56:03;;;;;;;37.70;15.02;;;7.30;99.90;;;;;;5118867;28;20031;-66
2021/09/22 04:58:28;;;;;;;36.63;15.00;;;7.00;99.90;;;;;;5112384;28;20442;-66
2021/09/22 05:00:56;;;;;;;34.38;14.85;;;6.90;99.90;;;;;;5112210;27;20028;-67
2021/09/22 05:03:21;;;;;;;32.60;14.27;;;6.70;99.90;;;;;;5122607;27;20427;-67
2021/09/22 05:05:47;;;;;;;33.33;13.45;;;6.60;99.90;;;;;;5120478;27;20107;-66
2021/09/22 05:08:12;;;;;;;34.25;13.80;;;6.50;99.90;;;;;;5115694;27;20035;-67
2021/09/22 05:10:38;;;;;;;36.67;13.63;;;6.70;99.90;;;;;;5114375;27;20024;-67
2021/09/22 05:13:04;;;;;;;34.08;13.85;;;6.70;99.90;;;;;;5117286;27;20378;-66
2021/09/22 05:15:29;;;;;;;47.05;15.50;;;6.90;99.90;;;;;;5112178;27;20094;-67
2021/09/22 05:17:55;;;;;;;39.35;15.95;;;7.20;99.90;;;;;;5117750;27;20060;-66
2021/09/22 05:20:21;;;;;;;39.08;16.25;;;7.40;99.90;;;;;;5115600;27;20034;-66
2021/09/22 05:22:47;;;;;;;42.05;15.60;;;7.30;99.90;;;;;;5110890;27;20543;-67
2021/09/22 05:25:13;;;;;;;40.97;16.50;;;7.30;99.90;;;;;;5122235;27;20106;-67
2021/09/22 05:27:38;;;;;;;41.85;16.42;;;7.30;99.90;;;;;;5117225;27;20114;-66
2021/09/22 05:30:05;;;;;;;42.60;16.90;;;7.60;99.90;;;;;;5110911;27;20028;-66
2021/09/22 05:32:31;;;;;;;43.60;16.38;;;7.70;99.90;;;;;;5112386;27;20032;-67
2021/09/22 05:34:56;;;;;;;38.20;16.05;;;7.70;99.90;;;;;;5119724;27;20033;-67
2021/09/22 05:37:22;;;;;;;31.15;14.85;;;7.60;99.90;;;;;;5118561;27;20489;-67
2021/09/22 05:39:48;;;;;;;35.83;14.77;;;7.40;99.90;;;;;;5127676;27;20072;-67
2021/09/22 05:42:14;;;;;;;34.92;15.05;;;7.30;99.90;;;;;;5120349;27;20364;-66
2021/09/22 05:44:39;;;;;;;35.47;14.13;;;7.20;99.90;;;;;;5121062;27;20535;-67
2021/09/22 05:47:05;;;;;;;31.92;14.93;;;7.20;99.90;;;;;;5118551;27;20027;-67
2021/09/22 05:49:30;;;;;;;35.65;15.23;;;7.10;99.90;;;;;;5118247;27;20094;-66
2021/09/22 05:51:56;;;;;;;35.30;14.13;;;7.20;99.90;;;;;;5127582;27;20027;-66
2021/09/22 05:54:22;;;;;;;40.00;15.00;;;7.20;99.90;;;;;;5122599;27;20026;-67
2021/09/22 05:56:48;;;;;;;39.40;15.85;;;7.30;99.90;;;;;;5117374;27;20046;-67
2021/09/22 05:59:14;;;;;;;34.13;15.70;;;7.30;99.90;;;;;;5119546;27;20020;-67
2021/09/22 06:01:40;;;;;;;32.72;15.13;;;7.40;99.90;;;;;;5121989;27;20038;-66
2021/09/22 06:04:06;;;;;;;32.92;14.80;;;7.60;99.90;;;;;;5121418;27;20020;-66
2021/09/22 06:06:32;;;;;;;35.97;15.30;;;7.60;99.90;;;;;;5110604;28;20388;-66
2021/09/22 06:08:57;;;;;;;41.85;16.10;;;7.80;99.90;;;;;;5114182;27;20046;-67
2021/09/22 06:11:23;;;;;;;48.50;15.95;;;7.90;99.90;;;;;;5109465;28;20022;-67
2021/09/22 06:13:52;;;;;;;37.55;15.07;;;8.00;99.90;;;;;;5117804;27;20111;-66
2021/09/22 06:16:19;;;;;;;36.55;14.55;;;8.10;99.90;;;;;;5110459;28;20024;-66
2021/09/22 06:18:45;;;;;;;36.45;15.82;;;8.20;99.90;;;;;;5115225;27;20054;-66
2021/09/22 06:21:10;;;;;;;40.60;16.50;;;8.40;99.90;;;;;;5116787;27;20118;-66
2021/09/22 06:23:36;;;;;;;39.03;16.48;;;8.50;99.90;;;;;;5123765;27;20030;-67
2021/09/22 06:26:02;;;;;;;37.78;17.10;;;8.70;99.90;;;;;;5116203;27;20028;-66
2021/09/22 06:28:27;;;;;;;38.88;15.57;;;8.80;99.90;;;;;;5108866;27;20049;-67
2021/09/22 06:30:53;;;;;;;37.42;16.48;;;8.90;99.90;;;;;;5108483;27;20039;-67
2021/09/22 06:33:19;;;;;;;34.33;15.45;;;8.60;99.90;;;;;;5112998;27;20089;-67
2021/09/22 06:35:45;;;;;;;32.05;13.82;;;9.20;99.90;;;;;;5117302;27;20042;-67
2021/09/22 06:38:10;;;;;;;33.55;14.73;;;9.30;99.90;;;;;;5117533;27;20107;-67
2021/09/22 06:40:37;;;;;;;32.85;15.02;;;9.50;99.90;;;;;;5116468;27;20030;-67
2021/09/22 06:43:04;;;;;;;31.05;15.10;;;9.60;99.90;;;;;;5115076;27;20516;-66
2021/09/22 06:45:30;;;;;;;27.60;14.02;;;9.70;99.90;;;;;;5112418;27;20031;-68
2021/09/22 06:47:56;;;;;;;30.60;13.95;;;9.80;99.90;;;;;;5118009;27;20011;-67
2021/09/22 06:50:22;;;;;;;29.65;13.13;;;9.90;99.90;;;;;;5119233;27;20042;-67
2021/09/22 06:52:48;;;;;;;30.98;14.85;;;10.20;99.90;;;;;;5113692;27;20912;-67
2021/09/22 06:55:14;;;;;;;27.90;13.38;;;10.40;99.90;;;;;;5124104;27;20015;-68
2021/09/22 06:57:40;;;;;;;31.42;13.07;;;10.50;99.90;;;;;;5113458;27;20027;-67
2021/09/22 07:00:09;;;;;;;26.38;12.25;;;10.70;99.90;;;;;;5117172;27;20020;-67
2021/09/22 07:02:35;;;;;;;26.02;12.70;;;10.80;99.90;;;;;;5124644;27;20025;-67
2021/09/22 07:05:01;;;;;;;24.95;12.82;;;10.90;99.90;;;;;;5113108;27;20055;-67
2021/09/22 07:07:26;;;;;;;26.40;12.35;;;11.00;99.90;;;;;;5115256;27;20136;-67
2021/09/22 07:09:52;;;;;;;27.58;11.80;;;11.20;99.90;;;;;;5108585;28;20027;-67
2021/09/22 07:12:17;;;;;;;27.83;12.65;;;11.40;99.90;;;;;;5114516;27;20426;-67
2021/09/22 07:14:43;;;;;;;28.90;11.90;;;11.70;99.90;;;;;;5119619;27;20062;-67
2021/09/22 07:17:09;;;;;;;25.20;11.05;;;11.90;99.90;;;;;;5112214;27;20026;-67
2021/09/22 07:19:34;;;;;;;23.92;11.27;;;12.10;99.90;;;;;;5113235;27;20031;-66
2021/09/22 07:22:00;;;;;;;24.05;10.75;;;12.20;99.90;;;;;;5111411;27;20047;-66
2021/09/22 07:24:26;;;;;;;22.92;9.55;;;12.40;99.90;;;;;;5125193;27;20027;-66
2021/09/22 07:26:53;;;;;;;24.48;10.50;;;12.40;99.90;;;;;;5119042;27;20034;-66
2021/09/22 07:29:18;;;;;;;23.15;9.88;;;12.40;99.90;;;;;;5117128;27;20072;-66
2021/09/22 07:31:44;;;;;;;26.20;10.70;;;12.50;99.90;;;;;;5117589;27;20023;-67
2021/09/22 07:34:09;;;;;;;26.52;11.57;;;12.70;99.90;;;;;;5116587;27;20023;-67
2021/09/22 07:36:35;;;;;;;22.20;10.00;;;12.90;99.90;;;;;;5109027;27;20510;-67
2021/09/22 07:39:01;;;;;;;21.23;9.55;;;13.20;99.90;;;;;;5115659;27;20134;-67
2021/09/22 07:41:26;;;;;;;22.10;9.63;;;13.50;99.90;;;;;;5117030;27;20023;-67
2021/09/22 07:43:52;;;;;;;21.58;9.85;;;13.70;99.90;;;;;;5109131;27;20038;-67
2021/09/22 07:46:18;;;;;;;20.10;9.60;;;14.00;99.90;;;;;;5113957;27;20018;-67
2021/09/22 07:48:44;;;;;;;25.63;10.90;;;14.20;99.90;;;;;;5119963;27;20560;-67
2021/09/22 07:51:09;;;;;;;22.83;10.07;;;14.30;99.90;;;;;;5112583;27;20094;-67
2021/09/22 07:53:35;;;;;;;23.20;11.30;;;14.30;99.90;;;;;;5123597;27;20011;-67
2021/09/22 07:56:00;;;;;;;25.05;11.73;;;14.30;99.90;;;;;;5112915;27;20027;-66
2021/09/22 07:58:26;;;;;;;23.63;11.30;;;14.40;99.90;;;;;;5116855;27;20061;-66
2021/09/22 08:00:52;;;;;;;25.42;12.18;;;14.40;99.90;;;;;;5113556;27;20092;-67
2021/09/22 08:03:17;;;;;;;30.05;12.43;;;14.60;99.90;;;;;;5112857;27;20031;-68
2021/09/22 08:05:43;;;;;;;25.50;11.32;;;14.70;99.90;;;;;;5111528;27;20344;-67
2021/09/22 08:08:09;;;;;;;25.95;12.45;;;14.70;99.90;;;;;;5120224;27;20038;-66
2021/09/22 08:10:37;;;;;;;23.95;11.88;;;14.70;99.90;;;;;;5113161;27;20421;-67
2021/09/22 08:13:04;;;;;;;26.73;11.75;;;14.80;99.90;;;;;;5113071;27;20096;-67
2021/09/22 08:15:30;;;;;;;26.70;12.98;;;15.00;99.90;;;;;;5108167;28;20020;-66
2021/09/22 08:17:56;;;;;;;27.95;13.05;;;15.20;99.90;;;;;;5111593;27;20138;-66
2021/09/22 08:20:21;;;;;;;25.02;12.52;;;15.10;99.90;;;;;;5109193;27;20030;-67
2021/09/22 08:22:48;;;;;;;24.98;10.90;;;15.10;99.90;;;;;;5109096;27;20019;-67
2021/09/22 08:25:14;;;;;;;24.33;11.85;;;15.20;99.90;;;;;;5115712;27;20386;-67
2021/09/22 08:27:40;;;;;;;29.67;12.85;;;15.50;99.90;;;;;;5108433;27;20019;-67
2021/09/22 08:30:07;;;;;;;27.38;11.45;;;15.80;99.90;;;;;;5107481;28;20024;-66
2021/09/22 08:32:34;;;;;;;25.20;11.77;;;16.10;99.90;;;;;;5116282;27;20530;-66
2021/09/22 08:34:59;;;;;;;27.58;12.90;;;16.30;99.90;;;;;;5112597;27;20019;-67
2021/09/22 08:37:25;;;;;;;27.00;11.77;;;16.70;99.90;;;;;;5114792;27;20400;-67
2021/09/22 08:39:51;;;;;;;29.05;13.35;;;17.00;99.90;;;;;;5115103;27;20107;-66
2021/09/22 08:42:17;;;;;;;24.42;11.70;;;17.40;99.90;;;;;;5115798;27;20118;-66
2021/09/22 08:44:44;;;;;;;21.75;11.40;;;18.00;99.90;;;;;;5108796;27;20470;-67
2021/09/22 08:47:10;;;;;;;23.58;10.32;;;18.80;99.90;;;;;;5105990;28;20443;-67
2021/09/22 08:49:36;;;;;;;25.85;11.23;;;19.00;99.90;;;;;;5116291;27;20024;-68
2021/09/22 08:52:02;;;;;;;24.40;11.00;;;18.90;99.90;;;;;;5114881;27;20482;-67
2021/09/22 08:54:29;;;;;;;21.77;11.05;;;19.00;99.90;;;;;;5118179;27;21012;-67
2021/09/22 08:56:54;;;;;;;18.70;9.80;;;19.80;99.90;;;;;;5112003;27;20098;-67
2021/09/22 08:59:20;;;;;;;18.70;9.82;;;20.20;99.90;;;;;;5115316;28;20216;-66
2021/09/22 09:02:06;;;;;;;22.92;10.40;;;19.80;99.90;;;;;;5114550;27;20023;-67
2021/09/22 09:04:32;;;;;;;22.10;10.93;;;19.40;99.90;;;;;;5115454;28;20031;-66
2021/09/22 09:06:58;;;;;;;15.27;8.18;;;19.60;99.90;;;;;;5115948;27;20044;-67
2021/09/22 09:09:41;;;;;;;22.27;11.35;;;19.50;99.90;;;;;;5107179;28;20024;-67
2021/09/22 09:12:21;;;;;;;21.35;10.73;;;19.00;99.90;;;;;;5110161;28;20368;-67
2021/09/22 09:14:56;;;;;;;18.60;10.50;;;19.50;99.90;;;;;;5110611;28;20051;-67
2021/09/22 09:17:38;;;;;;;16.25;8.10;;;19.80;99.90;;;;;;5113864;28;20024;-67
2021/09/22 09:20:15;;;;;;;20.58;9.02;;;19.90;99.90;;;;;;5114572;28;20038;-66
2021/09/22 09:22:41;;;;;;;19.23;9.48;;;20.00;99.90;;;;;;5111935;28;20024;-67
2021/09/22 09:25:07;;;;;;;19.42;8.60;;;19.90;99.90;;;;;;5120356;28;20015;-67
2021/09/22 09:27:35;;;;;;;17.55;7.82;;;19.90;99.90;;;;;;5108319;28;20095;-67
2021/09/22 09:30:14;;;;;;;18.40;8.63;;;20.20;99.90;;;;;;5107253;28;20039;-67
2021/09/22 09:32:40;;;;;;;18.17;9.48;;;20.90;99.90;;;;;;5107372;28;20027;-67
2021/09/22 09:35:11;;;;;;;16.55;8.43;;;21.00;99.90;;;;;;5114285;28;20035;-67
2021/09/22 09:37:44;;;;;;;19.38;8.63;;;20.40;99.90;;;;;;5114891;28;20370;-67
2021/09/22 09:40:26;;;;;;;16.48;8.48;;;19.90;99.90;;;;;;5115231;28;20019;-66
2021/09/22 09:43:04;;;;;;;18.02;9.02;;;20.10;99.90;;;;;;5110510;28;20494;-67
2021/09/22 09:45:36;;;;;;;15.55;8.07;;;20.10;99.90;;;;;;5112184;28;20117;-67
2021/09/22 09:48:22;;;;;;;15.38;8.07;;;19.70;99.90;;;;;;5118048;27;20019;-66
2021/09/22 09:50:54;;;;;;;15.90;7.70;;;20.20;99.90;;;;;;5113380;27;20031;-67
2021/09/22 09:53:31;;;;;;;17.98;8.80;;;20.60;99.90;;;;;;5120153;27;20071;-67
2021/09/22 09:56:02;;;;;;;14.38;6.78;;;20.90;99.90;;;;;;5117919;27;20019;-67
2021/09/22 09:58:43;;;;;;;17.65;7.05;;;21.40;99.90;;;;;;5120942;27;20058;-68
2021/09/22 10:01:10;;;;;;;14.93;7.38;;;22.30;99.90;;;;;;5114174;27;20023;-67
2021/09/22 10:03:36;;;;;;;12.40;5.53;;;23.10;97.30;;;;;;5117943;27;20020;-67
2021/09/22 10:06:01;;;;;;;13.93;6.22;;;23.30;95.60;;;;;;5114876;27;20104;-67
2021/09/22 10:08:28;;;;;;;14.13;6.90;;;21.50;96.40;;;;;;5117450;27;20027;-67
2021/09/22 10:10:55;;;;;;;14.27;6.60;;;21.80;97.70;;;;;;5114541;27;20076;-67
2021/09/22 10:13:23;;;;;;;12.70;6.28;;;21.80;96.60;;;;;;5117489;27;20110;-67
2021/09/22 10:15:50;;;;;;;13.45;5.28;;;22.20;96.60;;;;;;5117597;27;20024;-68
2021/09/22 10:18:19;;;;;;;15.75;6.43;;;22.20;95.70;;;;;;5120089;27;20119;-67
2021/09/22 10:20:47;;;;;;;13.75;6.65;;;21.90;96.40;;;;;;5120150;27;20028;-67
2021/09/22 10:23:15;;;;;;;13.50;6.15;;;22.20;96.20;;;;;;5113986;27;20375;-67
2021/09/22 10:25:41;;;;;;;12.38;5.53;;;22.20;95.80;;;;;;5115989;27;20036;-68
2021/09/22 10:28:08;;;;;;;14.93;5.13;;;22.30;95.00;;;;;;5112527;27;20356;-67
2021/09/22 10:30:45;;;;;;;13.32;5.70;;;22.10;94.60;;;;;;5118589;27;20355;-67
2021/09/22 10:33:26;;;;;;;13.98;5.68;;;22.10;94.80;;;;;;5111516;27;20016;-67
2021/09/22 10:36:04;;;;;;;14.50;6.00;;;22.50;94.70;;;;;;5115547;27;20371;-68
2021/09/22 10:38:30;;;;;;;11.65;5.63;;;22.80;93.60;;;;;;5118605;27;20019;-67
2021/09/22 10:41:00;;;;;;;9.93;4.85;;;23.60;92.40;;;;;;5118811;27;20072;-68
2021/09/22 10:43:35;;;;;;;10.95;4.47;;;24.70;91.80;;;;;;5114994;27;20031;-67
2021/09/22 10:46:10;;;;;;;9.95;4.97;;;24.70;90.40;;;;;;5117687;27;20531;-68
2021/09/22 10:48:37;;;;;;;10.05;5.22;;;24.50;90.70;;;;;;5120273;27;20023;-68
2021/09/22 10:51:05;;;;;;;11.77;5.97;;;24.60;90.60;;;;;;5110413;27;20487;-67
2021/09/22 10:53:33;;;;;;;12.73;5.60;;;24.10;90.50;;;;;;5120890;27;20023;-67
2021/09/22 10:56:14;;;;;;;10.18;4.50;;;24.00;91.10;;;;;;5115130;27;20103;-67
2021/09/22 10:58:51;;;;;;;10.63;4.82;;;23.80;89.80;;;;;;5121015;27;20022;-67
2021/09/22 11:01:34;;;;;;;14.80;6.70;;;23.30;91.80;;;;;;5114414;27;20025;-67
2021/09/22 11:04:05;;;;;;;11.27;5.30;;;24.00;91.50;;;;;;5113224;27;20023;-67
2021/09/22 11:06:42;;;;;;;12.07;6.07;;;25.10;88.70;;;;;;5109066;27;20047;-67
2021/09/22 11:09:17;;;;;;;12.98;6.28;;;24.50;89.00;;;;;;5108682;28;20486;-67
2021/09/22 11:11:55;;;;;;;15.85;6.95;;;24.50;88.90;;;;;;5115508;27;20019;-67
2021/09/22 11:14:27;;;;;;;12.10;6.45;;;24.40;90.10;;;;;;5120636;27;20023;-67
2021/09/22 11:16:54;;;;;;;10.98;5.57;;;25.10;88.00;;;;;;5112537;27;20105;-67
2021/09/22 11:19:20;;;;;;;13.15;5.47;;;25.30;86.50;;;;;;5123425;27;20064;-68
2021/09/22 11:21:48;;;;;;;15.70;6.15;;;25.40;86.30;;;;;;5112383;27;20360;-67
2021/09/22 11:24:15;;;;;;;14.57;6.10;;;24.80;87.40;;;;;;5119796;27;20023;-67
2021/09/22 11:26:53;;;;;;;13.13;6.05;;;25.60;86.20;;;;;;5116658;27;20382;-68
2021/09/22 11:29:37;;;;;;;11.75;5.97;;;24.30;87.30;;;;;;5120394;27;20533;-67
2021/09/22 11:32:31;;;;;;;14.70;6.28;;;24.60;90.20;;;;;;5111410;27;20023;-67
2021/09/22 11:35:08;;;;;;;12.55;5.88;;;24.50;88.30;;;;;;5117531;27;20015;-68
2021/09/22 11:37:41;;;;;;;13.32;5.97;;;25.00;86.90;;;;;;5122297;27;20491;-67
2021/09/22 11:40:23;;;;;;;12.02;6.25;;;25.00;88.20;;;;;;5124463;27;20020;-68
2021/09/22 11:43:12;;;;;;;11.75;6.40;;;25.60;85.40;;;;;;5118677;27;20454;-67
2021/09/22 11:45:52;;;;;;;11.32;4.90;;;26.10;84.20;;;;;;5124438;27;20545;-67
2021/09/22 11:48:26;;;;;;;10.90;4.78;;;26.70;86.00;;;;;;5113566;27;20023;-68
2021/09/22 11:50:52;;;;;;;12.27;4.93;;;27.50;80.80;;;;;;5106602;27;20028;-67
2021/09/22 11:53:23;;;;;;;10.73;5.45;;;25.20;82.60;;;;;;5112999;27;20034;-68
2021/09/22 11:55:50;;;;;;;11.35;5.18;;;25.40;85.60;;;;;;5111971;27;20028;-68
2021/09/22 11:58:19;;;;;;;11.20;5.55;;;26.50;81.70;;;;;;5117986;27;20024;-68
2021/09/22 12:00:49;;;;;;;9.50;4.05;;;27.80;79.50;;;;;;5112077;27;20062;-68
2021/09/22 12:03:15;;;;;;;14.27;4.97;;;26.30;79.30;;;;;;5119924;27;20558;-67
2021/09/22 12:05:42;;;;;;;10.68;4.28;;;26.80;79.80;;;;;;5116673;27;20034;-68
2021/09/22 12:08:09;;;;;;;8.68;4.18;;;28.40;76.60;;;;;;5110372;27;20046;-67
2021/09/22 12:10:43;;;;;;;9.15;4.22;;;27.20;77.30;;;;;;5114785;27;20455;-68
2021/09/22 12:13:10;;;;;;;8.75;3.90;;;26.30;77.80;;;;;;5116169;27;20024;-67
2021/09/22 12:15:35;;;;;;;10.45;4.15;;;25.50;79.20;;;;;;5116182;27;20103;-67
2021/09/22 12:18:01;;;;;;;8.32;3.83;;;25.70;79.20;;;;;;5115911;27;20097;-67
2021/09/22 12:20:30;;;;;;;11.95;4.28;;;25.90;77.10;;;;;;5115178;27;20401;-68
2021/09/22 12:23:02;;;;;;;10.75;4.10;;;27.40;77.60;;;;;;5111721;27;20022;-67
2021/09/22 12:25:30;;;;;;;9.32;3.70;;;27.40;77.70;;;;;;5121567;27;20521;-68
2021/09/22 12:27:58;;;;;;;10.05;3.80;;;28.10;75.60;;;;;;5112889;27;20015;-67
2021/09/22 12:30:37;;;;;;;19.02;5.03;;;27.70;73.90;;;;;;5110714;27;20107;-68
2021/09/22 12:33:05;;;;;;;9.45;4.07;;;27.40;74.70;;;;;;5107918;27;20024;-67
2021/09/22 12:35:41;;;;;;;9.88;4.90;;;26.10;77.40;;;;;;5116464;27;20350;-68
2021/09/22 12:38:08;;;;;;;8.90;4.25;;;27.40;75.70;;;;;;5107244;28;20042;-68